Terminal Aerodrome Forecast
Issued by NWS

Home | Current Version | Previous Version | Text Only | Print | Product List | Glossary On
Versions: 1 2 3 4 5 6 7 8 9 10 11 12 13 14 15 16 17 18 19 20 21 22 23 24 25 26 27 28 29 30 31 32 33 34 35 36 37 38 39 40 41 42 43
000
FTUS45 KBOU 261410 AAA
TAFAPA
TAF AMD
KAPA 261410Z 2614/2712 14008KT 3SM RA BR OVC007
     FM261500 12009KT 5SM -SHRA SCT008 OVC015
      TEMPO 2615/2618 3SM -SHRA BR OVC008
     FM261800 10011KT 3SM -SHRA BR SCT006 OVC010
     FM270100 07010KT 3SM -SHRA BR SCT005 OVC008
     FM270600 05010KT 1SM -SHRA BR SCT004 OVC008=

USA.gov is the U.S. government's official web portal to all federal, state and local government web resources and services.